createdAt,value
2018-04-11T00:01:13.597Z,100444.00
2018-04-11T00:03:41.679Z,100441.70
2018-04-11T00:06:10.395Z,100433.44
2018-04-11T00:08:39.380Z,100424.97
2018-04-11T00:11:07.466Z,100416.70
2018-04-11T00:13:35.571Z,100422.84
2018-04-11T00:16:03.685Z,100414.19
2018-04-11T00:18:32.179Z,100411.28
2018-04-11T00:21:00.310Z,100423.77
2018-04-11T00:23:28.431Z,100422.44
2018-04-11T00:25:56.511Z,100434.15
2018-04-11T00:28:24.598Z,100435.28
2018-04-11T00:30:52.717Z,100435.00
2018-04-11T00:33:20.845Z,100446.20
2018-04-11T00:35:48.915Z,100445.85
2018-04-11T00:38:17.130Z,100449.01
2018-04-11T00:53:45.257Z,100473.19
2018-04-11T00:56:13.356Z,100484.50
2018-04-11T00:58:41.447Z,100499.67
2018-04-11T01:01:09.575Z,100514.42
2018-04-11T01:03:37.783Z,100519.29
2018-04-11T01:06:05.867Z,100529.78
2018-04-11T01:08:33.960Z,100521.70
2018-04-11T01:11:02.088Z,100517.08
2018-04-11T01:13:30.606Z,100518.47
2018-04-11T01:15:59.555Z,100516.38
2018-04-11T01:18:27.651Z,100516.17
2018-04-11T01:20:55.769Z,100510.59
2018-04-11T01:23:24.075Z,100506.35
2018-04-11T01:25:52.231Z,100503.08
2018-04-11T01:28:20.331Z,100498.43
2018-04-11T01:30:48.424Z,100495.73
2018-04-11T01:33:16.536Z,100495.25
2018-04-11T01:35:44.627Z,100492.05
2018-04-11T01:38:12.780Z,100498.55
2018-04-11T01:40:40.893Z,100502.66
2018-04-11T01:43:08.990Z,100494.86
2018-04-11T01:45:37.087Z,100496.78
2018-04-11T01:48:05.399Z,100504.20
2018-04-11T01:50:33.483Z,100510.55
2018-04-11T01:53:01.579Z,100520.08
2018-04-11T01:55:29.676Z,100519.70
2018-04-11T01:57:57.777Z,100517.72
2018-04-11T02:00:26.490Z,100527.69
2018-04-11T02:02:55.057Z,100520.36
2018-04-11T02:05:28.181Z,100520.42
2018-04-11T02:07:56.287Z,100519.88
2018-04-11T02:10:24.379Z,100532.42
2018-04-11T02:12:52.531Z,100537.48
2018-04-11T02:15:20.623Z,100542.66
2018-04-11T02:17:48.788Z,100529.45
2018-04-11T02:20:17.697Z,100532.20
2018-04-11T02:22:45.788Z,100528.87
2018-04-11T02:25:13.916Z,100526.11
2018-04-11T02:27:42.028Z,100521.48
2018-04-11T02:30:10.447Z,100533.07
2018-04-11T02:32:38.845Z,100529.53
2018-04-11T02:35:06.953Z,100533.86
2018-04-11T02:37:35.095Z,100535.53
2018-04-11T02:40:04.163Z,100541.09
2018-04-11T02:42:32.279Z,100555.60
2018-04-11T02:45:00.368Z,100557.89
2018-04-11T02:47:29.333Z,100568.11
2018-04-11T02:49:57.446Z,100569.72
2018-04-11T02:52:25.529Z,100568.99
2018-04-11T02:54:54.085Z,100572.34
2018-04-11T02:57:22.187Z,100574.31
2018-04-11T02:59:51.086Z,100565.16
2018-04-11T03:02:19.768Z,100567.62
2018-04-11T03:04:47.918Z,100575.47
2018-04-11T03:07:17.565Z,100576.16
2018-04-11T03:09:45.742Z,100576.95
2018-04-11T03:12:13.820Z,100581.11
2018-04-11T03:14:42.704Z,100586.47
2018-04-11T03:17:10.796Z,100583.58
2018-04-11T03:19:39.748Z,100582.00
2018-04-11T03:22:08.246Z,100583.45
2018-04-11T03:24:36.347Z,100578.69
2018-04-11T03:27:04.459Z,100579.73
2018-04-11T03:29:32.547Z,100575.27
2018-04-11T03:32:00.643Z,100581.91
2018-04-11T03:34:29.907Z,100584.23
2018-04-11T03:36:58.011Z,100590.90
2018-04-11T03:39:26.439Z,100593.98
2018-04-11T03:41:54.548Z,100597.72
2018-04-11T03:44:22.650Z,100603.17
2018-04-11T03:46:50.751Z,100598.84
2018-04-11T03:49:18.853Z,100609.94
2018-04-11T03:51:46.938Z,100603.77
2018-04-11T03:54:15.027Z,100604.38
2018-04-11T03:56:43.132Z,100599.25
2018-04-11T03:59:11.220Z,100596.59
2018-04-11T04:01:39.310Z,100597.00
2018-04-11T04:04:07.413Z,100594.84
2018-04-11T04:06:35.856Z,100585.94
2018-04-11T04:09:03.943Z,100596.19
2018-04-11T04:11:32.051Z,100588.66
2018-04-11T04:14:11.847Z,100590.47
2018-04-11T04:16:51.863Z,100587.86
2018-04-11T04:19:31.672Z,100588.59
2018-04-11T04:21:59.765Z,100596.23
2018-04-11T04:24:27.857Z,100598.02
2018-04-11T04:26:55.967Z,100607.47
2018-04-11T04:29:24.075Z,100601.13
2018-04-11T04:31:52.173Z,100604.88
2018-04-11T04:34:20.300Z,100608.60
2018-04-11T04:36:48.982Z,100597.27
2018-04-11T04:39:17.879Z,100605.41
2018-04-11T04:41:46.221Z,100604.30
2018-04-11T04:44:14.596Z,100604.50
2018-04-11T04:46:43.619Z,100607.84
2018-04-11T04:49:11.714Z,100604.75
2018-04-11T04:51:39.817Z,100605.95
2018-04-11T04:54:08.650Z,100611.67
2018-04-11T04:56:36.738Z,100609.89
2018-04-11T04:59:04.823Z,100610.09
2018-04-11T05:01:32.994Z,100614.45
2018-04-11T05:04:01.330Z,100615.73
2018-04-11T05:06:29.408Z,100617.18
2018-04-11T05:08:57.497Z,100628.71
2018-04-11T05:11:25.594Z,100632.33
2018-04-11T05:13:53.690Z,100634.83
2018-04-11T05:16:21.798Z,100641.03
2018-04-11T05:18:50.796Z,100627.80
2018-04-11T05:21:18.907Z,100626.31
2018-04-11T05:23:47.027Z,100622.52
2018-04-11T05:26:15.111Z,100626.11
2018-04-11T05:28:44.162Z,100627.45
2018-04-11T05:31:12.929Z,100628.00
2018-04-11T05:33:41.020Z,100634.19
2018-04-11T05:36:09.192Z,100637.27
2018-04-11T05:38:37.309Z,100643.06
2018-04-11T05:41:10.347Z,100648.97
2018-04-11T05:43:38.464Z,100660.08
2018-04-11T05:46:07.483Z,100658.39
2018-04-11T05:48:35.599Z,100661.39
2018-04-11T05:51:03.847Z,100663.69
2018-04-11T05:53:31.927Z,100669.54
2018-04-11T05:56:04.612Z,100654.69
2018-04-11T05:58:33.423Z,100654.48
2018-04-11T06:01:01.550Z,100657.95
2018-04-11T06:03:29.645Z,100664.23
2018-04-11T06:05:57.811Z,100663.23
2018-04-11T06:08:25.918Z,100661.11
2018-04-11T06:10:54.016Z,100657.86
2018-04-11T06:13:22.224Z,100661.02
2018-04-11T06:15:50.314Z,100665.04
2018-04-11T06:18:18.417Z,100670.79
2018-04-11T06:20:46.503Z,100672.13
2018-04-11T06:23:15.352Z,100673.08
2018-04-11T06:25:43.450Z,100669.34
2018-04-11T06:28:12.402Z,100673.15
2018-04-11T06:30:40.451Z,100675.52
2018-04-11T06:33:08.814Z,100681.79
2018-04-11T06:35:37.163Z,100683.89
2018-04-11T06:38:05.258Z,100689.77
2018-04-11T06:40:33.351Z,100691.74
2018-04-11T06:43:02.448Z,100693.03
2018-04-11T06:45:30.538Z,100687.89
2018-04-11T06:47:58.690Z,100689.57
2018-04-11T06:50:26.763Z,100688.78
2018-04-11T06:52:54.887Z,100689.97
2018-04-11T06:55:23.807Z,100689.28
2018-04-11T06:57:52.504Z,100699.83
2018-04-11T07:00:20.619Z,100707.45
2018-04-11T07:02:48.715Z,100703.11
2018-04-11T07:05:16.801Z,100696.80
2018-04-11T07:07:44.928Z,100701.16
2018-04-11T07:10:13.743Z,100699.05
2018-04-11T07:12:41.836Z,100701.81
2018-04-11T07:15:09.942Z,100707.02
2018-04-11T07:17:38.697Z,100694.25
2018-04-11T07:20:06.823Z,100695.86
2018-04-11T07:22:34.923Z,100692.89
2018-04-11T07:25:03.013Z,100693.47
2018-04-11T07:27:31.840Z,100701.50
2018-04-11T07:29:59.935Z,100707.25
2018-04-11T07:32:28.819Z,100707.80
2018-04-11T07:34:56.906Z,100713.94
2018-04-11T07:37:25.021Z,100723.17
2018-04-11T07:39:53.127Z,100707.22
2018-04-11T07:42:21.242Z,100702.14
2018-04-11T07:44:49.362Z,100704.22
2018-04-11T07:47:17.907Z,100717.03
2018-04-11T07:49:46.001Z,100721.61
2018-04-11T07:52:14.123Z,100721.03
2018-04-11T07:54:42.218Z,100720.70
2018-04-11T07:57:10.316Z,100721.13
2018-04-11T07:59:38.443Z,100723.75
2018-04-11T08:02:06.555Z,100723.39
2018-04-11T08:04:34.703Z,100725.89
2018-04-11T08:07:03.448Z,100716.20
2018-04-11T08:09:31.542Z,100724.52
2018-04-11T08:11:59.641Z,100726.88
2018-04-11T08:14:27.760Z,100730.69
2018-04-11T08:16:56.171Z,100720.96
2018-04-11T08:32:24.622Z,100732.21
2018-04-11T08:34:53.436Z,100724.09
2018-04-11T08:37:21.854Z,100721.44
2018-04-11T08:39:49.963Z,100725.20
2018-04-11T08:42:18.778Z,100725.23
2018-04-11T08:44:48.074Z,100725.61
2018-04-11T08:47:16.531Z,100724.20
2018-04-11T08:49:44.635Z,100720.20
2018-04-11T08:52:12.777Z,100714.31
2018-04-11T08:54:41.208Z,100718.14
2018-04-11T08:57:09.323Z,100718.23
2018-04-11T08:59:37.436Z,100729.34
2018-04-11T09:02:05.583Z,100733.20
2018-04-11T09:04:33.756Z,100734.19
2018-04-11T09:07:01.884Z,100729.13
2018-04-11T09:09:29.974Z,100735.33
2018-04-11T09:11:58.357Z,100732.56
2018-04-11T09:14:26.477Z,100736.00
2018-04-11T09:16:54.604Z,100734.72
2018-04-11T09:19:22.688Z,100734.09
2018-04-11T09:21:51.607Z,100730.20
2018-04-11T09:24:20.046Z,100732.22
2018-04-11T09:26:48.566Z,100729.66
2018-04-11T09:29:16.816Z,100731.05
2018-04-11T09:31:44.900Z,100724.17
2018-04-11T09:34:13.262Z,100723.96
2018-04-11T09:36:41.343Z,100724.61
2018-04-11T09:39:09.434Z,100720.73
2018-04-11T09:41:37.532Z,100725.20
2018-04-11T09:44:05.646Z,100724.63
2018-04-11T09:46:34.465Z,100731.63
2018-04-11T09:49:02.566Z,100735.47
2018-04-11T09:51:30.778Z,100734.76
2018-04-11T09:53:58.861Z,100737.57
2018-04-11T09:56:27.967Z,100741.89
2018-04-11T09:58:56.585Z,100738.22
2018-04-11T10:01:24.675Z,100730.03
2018-04-11T10:03:52.807Z,100726.83
2018-04-11T10:06:20.903Z,100723.06
2018-04-11T10:08:49.858Z,100722.94
2018-04-11T10:11:17.938Z,100725.42
2018-04-11T10:13:47.870Z,100721.25
2018-04-11T10:16:16.273Z,100729.15
2018-04-11T10:18:45.017Z,100743.84
2018-04-11T10:21:13.115Z,100743.14
2018-04-11T10:23:41.214Z,100739.50
2018-04-11T10:26:10.298Z,100744.44
2018-04-11T10:28:38.409Z,100748.19
2018-04-11T10:31:06.507Z,100743.68
2018-04-11T10:33:35.248Z,100749.44
2018-04-11T10:36:03.363Z,100747.03
2018-04-11T10:38:31.511Z,100755.98
2018-04-11T10:40:59.603Z,100753.70
2018-04-11T10:43:27.720Z,100750.45
2018-04-11T10:45:55.818Z,100751.34
2018-04-11T10:48:23.915Z,100744.01
2018-04-11T10:50:52.674Z,100755.48
2018-04-11T10:53:21.541Z,100758.87
2018-04-11T10:55:50.521Z,100758.28
2018-04-11T10:58:18.649Z,100760.97
2018-04-11T11:00:51.747Z,100752.49
2018-04-11T11:03:19.848Z,100751.28
2018-04-11T11:05:48.851Z,100758.34
2018-04-11T11:08:17.732Z,100759.00
2018-04-11T11:10:45.862Z,100761.83
2018-04-11T11:13:13.953Z,100759.36
2018-04-11T11:15:42.070Z,100760.88
2018-04-11T11:18:10.180Z,100753.16
2018-04-11T11:20:38.319Z,100747.59
2018-04-11T11:23:06.405Z,100756.17
2018-04-11T11:25:34.499Z,100747.83
2018-04-11T11:28:02.596Z,100751.60
2018-04-11T11:30:30.727Z,100750.48
2018-04-11T11:32:59.592Z,100748.13
2018-04-11T11:35:27.734Z,100748.65
2018-04-11T11:37:55.847Z,100750.39
2018-04-11T11:40:23.945Z,100749.57
2018-04-11T11:42:52.040Z,100749.50
2018-04-11T11:45:20.159Z,100749.67
2018-04-11T11:47:48.621Z,100750.69
2018-04-11T11:50:16.690Z,100752.20
2018-04-11T11:52:44.808Z,100748.42
2018-04-11T11:55:12.896Z,100748.03
2018-04-11T11:57:40.995Z,100747.92
2018-04-11T12:00:09.879Z,100743.36
2018-04-11T12:02:37.975Z,100738.98
2018-04-11T12:05:06.282Z,100727.74
2018-04-11T12:07:34.359Z,100731.78
2018-04-11T12:10:02.485Z,100720.71
2018-04-11T12:12:30.584Z,100729.06
2018-04-11T12:14:58.739Z,100735.17
2018-04-11T12:17:26.823Z,100733.53
2018-04-11T12:19:54.932Z,100729.91
2018-04-11T12:22:23.058Z,100726.77
2018-04-11T12:24:51.771Z,100726.44
2018-04-11T12:27:20.155Z,100721.51
2018-04-11T12:29:48.265Z,100724.30
2018-04-11T12:32:16.356Z,100726.41
2018-04-11T12:34:45.215Z,100721.47
2018-04-11T12:37:13.296Z,100722.29
2018-04-11T12:39:41.383Z,100722.61
2018-04-11T12:42:09.543Z,100723.33
2018-04-11T12:44:37.652Z,100720.51
2018-04-11T12:47:05.743Z,100726.38
2018-04-11T12:49:35.097Z,100720.82
2018-04-11T12:52:03.195Z,100722.13
2018-04-11T12:54:31.743Z,100723.67
2018-04-11T12:57:00.072Z,100717.76
2018-04-11T12:59:28.167Z,100716.31
2018-04-11T13:01:56.271Z,100714.83
2018-04-11T13:04:25.707Z,100716.73
2018-04-11T13:06:53.831Z,100712.38
2018-04-11T13:09:22.539Z,100707.41
2018-04-11T13:21:35.644Z,100691.74
2018-04-11T13:24:03.780Z,100690.11
2018-04-11T13:26:31.928Z,100684.56
2018-04-11T13:29:00.023Z,100682.02
2018-04-11T13:31:28.477Z,100680.73
2018-04-11T13:33:57.385Z,100675.77
2018-04-11T13:36:25.731Z,100670.36
2018-04-11T13:38:54.659Z,100671.33
2018-04-11T13:41:22.752Z,100666.54
2018-04-11T13:43:51.762Z,100669.58
2018-04-11T13:46:20.623Z,100669.22
2018-04-11T13:48:53.650Z,100667.34
2018-04-11T13:51:21.759Z,100661.88
2018-04-11T13:53:50.195Z,100661.70
2018-04-11T13:56:18.659Z,100660.03
2018-04-11T13:58:46.771Z,100652.15
2018-04-11T14:01:14.895Z,100650.06
2018-04-11T14:03:42.984Z,100647.53
2018-04-11T14:06:11.110Z,100640.83
2018-04-11T14:08:39.728Z,100644.66
2018-04-11T14:11:07.811Z,100638.91
2018-04-11T14:13:37.054Z,100638.84
2018-04-11T14:16:05.167Z,100640.19
2018-04-11T14:18:33.299Z,100638.06
2018-04-11T14:21:01.368Z,100643.31
2018-04-11T14:23:29.540Z,100633.05
2018-04-11T14:25:57.603Z,100635.04
2018-04-11T14:28:26.643Z,100631.31
2018-04-11T14:30:54.791Z,100637.59
2018-04-11T14:33:22.887Z,100634.22
2018-04-11T14:45:36.009Z,100630.06
2018-04-11T14:48:04.617Z,100631.66
2018-04-11T14:50:32.729Z,100625.23
2018-04-11T14:53:00.839Z,100624.05
2018-04-11T14:55:29.669Z,100622.02
2018-04-11T14:57:57.764Z,100622.55
2018-04-11T15:00:25.891Z,100624.17
2018-04-11T15:02:58.911Z,100624.06
2018-04-11T15:05:27.100Z,100613.58
2018-04-11T15:07:55.203Z,100622.12
2018-04-11T15:10:23.303Z,100623.45
2018-04-11T15:12:52.139Z,100619.95
2018-04-11T15:15:20.236Z,100620.28
2018-04-11T15:17:49.123Z,100615.75
2018-04-11T15:20:17.238Z,100612.45
2018-04-11T15:22:45.335Z,100610.27
2018-04-11T15:25:13.455Z,100609.41
2018-04-11T15:27:41.594Z,100608.23
2018-04-11T15:30:09.655Z,100604.22
2018-04-11T15:32:37.775Z,100590.61
2018-04-11T15:35:05.863Z,100596.09
2018-04-11T15:37:33.943Z,100594.48
2018-04-11T15:40:02.060Z,100600.58
2018-04-11T15:55:30.202Z,100590.57
2018-04-11T15:57:58.292Z,100591.23
2018-04-11T16:00:26.388Z,100587.52
2018-04-11T16:02:54.865Z,100584.70
2018-04-11T16:05:22.949Z,100588.02
2018-04-11T16:07:51.935Z,100580.55
2018-04-11T16:10:20.032Z,100575.87
2018-04-11T16:12:48.176Z,100576.11
2018-04-11T16:15:16.293Z,100579.39
2018-04-11T16:17:44.390Z,100573.42
2018-04-11T16:20:12.492Z,100564.77
2018-04-11T16:22:40.667Z,100566.04
2018-04-11T16:25:08.770Z,100564.64
2018-04-11T16:27:36.851Z,100565.38
2018-04-11T16:30:05.236Z,100564.41
2018-04-11T16:32:33.363Z,100563.80
2018-04-11T16:35:02.425Z,100566.22
2018-04-11T16:37:30.775Z,100565.80
2018-04-11T16:39:58.900Z,100567.38
2018-04-11T16:42:28.079Z,100570.34
2018-04-11T16:44:56.173Z,100572.42
2018-04-11T16:47:24.295Z,100567.22
2018-04-11T16:49:52.381Z,100561.36
2018-04-11T16:52:20.497Z,100574.59
2018-04-11T16:54:48.576Z,100571.39
2018-04-11T16:57:17.164Z,100570.08
2018-04-11T16:59:45.292Z,100562.06
2018-04-11T17:02:13.434Z,100557.89
2018-04-11T17:04:41.589Z,100559.55
2018-04-11T17:07:09.704Z,100559.59
2018-04-11T17:09:37.808Z,100556.00
2018-04-11T17:12:05.903Z,100552.06
2018-04-11T17:14:34.023Z,100552.48
2018-04-11T17:17:02.155Z,100555.73
2018-04-11T17:19:30.218Z,100550.76
2018-04-11T17:22:10.017Z,100554.15
2018-04-11T17:24:49.937Z,100554.15
2018-04-11T17:27:29.821Z,100554.49
2018-04-11T17:30:09.759Z,100556.42
2018-04-11T17:32:38.651Z,100553.33
2018-04-11T17:35:07.771Z,100548.95
2018-04-11T17:37:35.940Z,100555.33
2018-04-11T17:40:04.744Z,100549.39
2018-04-11T17:42:32.844Z,100549.03
2018-04-11T17:45:00.951Z,100548.03
2018-04-11T17:47:29.078Z,100550.81
2018-04-11T17:49:57.167Z,100548.62
2018-04-11T17:52:25.266Z,100555.91
2018-04-11T17:54:53.367Z,100554.05
2018-04-11T18:07:06.463Z,100548.81
2018-04-11T18:09:34.564Z,100551.95
2018-04-11T18:12:02.671Z,100547.98
2018-04-11T18:14:30.770Z,100551.29
2018-04-11T18:16:59.504Z,100557.43
2018-04-11T18:19:28.536Z,100550.50
2018-04-11T18:21:56.664Z,100552.44
2018-04-11T18:24:24.760Z,100551.76
2018-04-11T18:26:53.616Z,100554.45
2018-04-11T18:29:21.729Z,100550.41
2018-04-11T18:31:49.821Z,100549.64
2018-04-11T18:34:19.192Z,100549.84
2018-04-11T18:36:47.283Z,100556.13
2018-04-11T18:39:16.048Z,100556.20
2018-04-11T18:41:44.159Z,100557.93
2018-04-11T18:44:12.540Z,100563.78
2018-04-11T18:46:41.559Z,100564.80
2018-04-11T18:49:09.671Z,100570.38
2018-04-11T18:51:37.759Z,100559.83
2018-04-11T18:54:05.879Z,100562.17
2018-04-11T18:56:33.979Z,100564.84
2018-04-11T18:59:02.067Z,100566.09
2018-04-11T19:01:30.664Z,100566.03
2018-04-11T19:04:02.447Z,100564.35
2018-04-11T19:06:31.476Z,100564.35
2018-04-11T19:21:59.636Z,100582.87
2018-04-11T19:24:27.846Z,100584.64
2018-04-11T19:26:55.936Z,100574.16
2018-04-11T19:29:25.314Z,100580.13
2018-04-11T19:31:54.737Z,100574.34
2018-04-11T19:34:23.845Z,100579.24
2018-04-11T19:36:56.879Z,100582.94
2018-04-11T19:39:25.301Z,100579.81
2018-04-11T19:41:53.443Z,100586.94
2018-04-11T19:44:21.601Z,100584.70
2018-04-11T19:46:50.003Z,100584.77
2018-04-11T19:49:18.201Z,100583.28
2018-04-11T19:51:46.321Z,100586.48
2018-04-11T19:54:15.199Z,100583.12
2018-04-11T19:56:43.660Z,100583.75
2018-04-11T19:59:12.632Z,100582.75
2018-04-11T20:01:40.738Z,100573.63
2018-04-11T20:04:08.848Z,100572.62
2018-04-11T20:06:36.958Z,100569.86
2018-04-11T20:22:05.075Z,100576.55
2018-04-11T20:24:33.436Z,100578.78
2018-04-11T20:27:01.533Z,100574.23
2018-04-11T20:29:30.448Z,100567.53
2018-04-11T20:31:58.705Z,100567.70
2018-04-11T20:34:27.801Z,100570.43
2018-04-11T20:36:55.910Z,100571.46
2018-04-11T20:39:24.331Z,100579.30
2018-04-11T20:41:52.429Z,100581.64
2018-04-11T20:44:21.429Z,100576.94
2018-04-11T20:46:49.603Z,100571.53
2018-04-11T20:49:18.735Z,100563.78
2018-04-11T20:51:47.334Z,100555.73
2018-04-11T20:54:15.438Z,100559.17
2018-04-11T20:56:43.579Z,100559.44
2018-04-11T20:59:11.658Z,100561.86
2018-04-11T21:01:40.098Z,100562.87
2018-04-11T21:04:08.292Z,100563.20
2018-04-11T21:06:36.752Z,100558.91
2018-04-11T21:09:06.526Z,100556.91
2018-04-11T21:11:35.292Z,100559.00
2018-04-11T21:14:04.092Z,100556.06
2018-04-11T21:16:32.622Z,100551.88
2018-04-11T21:19:00.726Z,100551.84
2018-04-11T21:21:28.827Z,100556.84
2018-04-11T21:23:56.921Z,100550.10
2018-04-11T21:26:25.056Z,100556.06
2018-04-11T21:28:53.165Z,100555.49
2018-04-11T21:31:21.818Z,100555.53
2018-04-11T21:33:49.942Z,100556.45
2018-04-11T21:36:18.972Z,100555.50
2018-04-11T21:38:47.712Z,100560.25
2018-04-11T21:41:16.203Z,100560.68
2018-04-11T21:43:44.268Z,100562.70
2018-04-11T21:46:12.698Z,100568.02
2018-04-11T21:48:40.773Z,100564.58
2018-04-11T21:51:08.895Z,100561.78
2018-04-11T21:53:37.829Z,100562.31
2018-04-11T21:56:06.219Z,100556.56
2018-04-11T21:58:34.328Z,100556.95
2018-04-11T22:01:02.435Z,100553.97
2018-04-11T22:03:31.442Z,100553.91
2018-04-11T22:05:59.525Z,100553.58
2018-04-11T22:08:28.380Z,100546.41
2018-04-11T22:10:57.395Z,100547.23
2018-04-11T22:13:25.499Z,100542.76
2018-04-11T22:15:58.574Z,100539.17
2018-04-11T22:18:27.163Z,100541.45
2018-04-11T22:20:55.259Z,100538.57
2018-04-11T22:23:23.369Z,100539.70
2018-04-11T22:28:28.593Z,100539.81
2018-04-11T22:30:56.719Z,100535.20
2018-04-11T22:33:24.806Z,100536.30
2018-04-11T22:35:52.934Z,100533.89
2018-04-11T22:51:22.049Z,100524.59
2018-04-11T22:53:50.167Z,100526.92
2018-04-11T22:56:18.277Z,100527.28
2018-04-11T22:58:46.391Z,100526.97
2018-04-11T23:01:14.486Z,100532.00
2018-04-11T23:03:42.655Z,100530.66
2018-04-11T23:06:11.303Z,100519.27
2018-04-11T23:08:40.295Z,100519.20
2018-04-11T23:11:09.298Z,100517.21
2018-04-11T23:13:37.527Z,100515.33
2018-04-11T23:16:05.624Z,100508.95
2018-04-11T23:18:33.843Z,100513.66
2018-04-11T23:21:01.941Z,100514.20
2018-04-11T23:23:30.031Z,100515.14
2018-04-11T23:25:58.144Z,100511.45
2018-04-11T23:28:27.104Z,100520.50
2018-04-11T23:30:55.532Z,100516.63
2018-04-11T23:33:23.657Z,100516.28
2018-04-11T23:35:51.976Z,100509.95
2018-04-11T23:38:21.136Z,100510.35
2018-04-11T23:40:49.312Z,100507.63
2018-04-11T23:43:17.411Z,100506.29
2018-04-11T23:45:45.521Z,100507.31
2018-04-11T23:48:14.651Z,100507.36
2018-04-11T23:50:42.748Z,100499.62
2018-04-11T23:53:11.970Z,100503.77
2018-04-11T23:55:40.046Z,100505.34
2018-04-11T23:58:08.914Z,100505.28
